sensor_id;sensor_type;location;lat;lon;timestamp;P1;durP1;ratioP1;P2;durP2;ratioP2
5791;SDS011;2922;53.482;10.006;2023-12-04T00:00:00;28.90;;;11.07;;
5791;SDS011;2922;53.482;10.006;2023-12-04T00:02:26;32.27;;;10.80;;
5791;SDS011;2922;53.482;10.006;2023-12-04T00:04:51;31.50;;;10.37;;
5791;SDS011;2922;53.482;10.006;2023-12-04T00:07:17;33.93;;;11.50;;
5791;SDS011;2922;53.482;10.006;2023-12-04T00:09:42;29.77;;;10.07;;
5791;SDS011;2922;53.482;10.006;2023-12-04T00:12:08;37.73;;;12.77;;
5791;SDS011;2922;53.482;10.006;2023-12-04T00:14:34;33.27;;;12.50;;
5791;SDS011;2922;53.482;10.006;2023-12-04T00:16:59;30.13;;;9.73;;
5791;SDS011;2922;53.482;10.006;2023-12-04T00:19:25;35.83;;;10.70;;
5791;SDS011;2922;53.482;10.006;2023-12-04T00:21:50;27.60;;;9.30;;
5791;SDS011;2922;53.482;10.006;2023-12-04T00:24:16;29.13;;;9.90;;
5791;SDS011;2922;53.482;10.006;2023-12-04T00:26:41;30.70;;;10.60;;
5791;SDS011;2922;53.482;10.006;2023-12-04T00:29:07;32.47;;;11.10;;
5791;SDS011;2922;53.482;10.006;2023-12-04T00:31:32;28.57;;;10.47;;
5791;SDS011;2922;53.482;10.006;2023-12-04T00:33:58;30.23;;;9.50;;
5791;SDS011;2922;53.482;10.006;2023-12-04T00:36:23;25.87;;;9.73;;
5791;SDS011;2922;53.482;10.006;2023-12-04T00:38:49;32.97;;;12.73;;
5791;SDS011;2922;53.482;10.006;2023-12-04T00:41:15;30.30;;;9.70;;
5791;SDS011;2922;53.482;10.006;2023-12-04T00:43:40;28.03;;;11.30;;
5791;SDS011;2922;53.482;10.006;2023-12-04T00:46:06;36.10;;;11.67;;
5791;SDS011;2922;53.482;10.006;2023-12-04T00:48:31;29.37;;;10.40;;
5791;SDS011;2922;53.482;10.006;2023-12-04T00:50:57;30.10;;;9.93;;
5791;SDS011;2922;53.482;10.006;2023-12-04T00:53:23;29.10;;;11.20;;
5791;SDS011;2922;53.482;10.006;2023-12-04T00:55:49;36.50;;;10.00;;
5791;SDS011;2922;53.482;10.006;2023-12-04T00:58:14;31.10;;;11.97;;
5791;SDS011;2922;53.482;10.006;2023-12-04T01:00:40;32.70;;;10.10;;
5791;SDS011;2922;53.482;10.006;2023-12-04T01:03:05;28.93;;;10.37;;
5791;SDS011;2922;53.482;10.006;2023-12-04T01:05:31;37.00;;;11.80;;
5791;SDS011;2922;53.482;10.006;2023-12-04T01:07:56;34.27;;;11.27;;
5791;SDS011;2922;53.482;10.006;2023-12-04T01:10:22;31.03;;;10.63;;
5791;SDS011;2922;53.482;10.006;2023-12-04T01:12:48;28.83;;;10.03;;
5791;SDS011;2922;53.482;10.006;2023-12-04T01:15:13;34.37;;;10.70;;
5791;SDS011;2922;53.482;10.006;2023-12-04T01:17:39;33.10;;;11.03;;
5791;SDS011;2922;53.482;10.006;2023-12-04T01:20:05;35.30;;;11.47;;
5791;SDS011;2922;53.482;10.006;2023-12-04T01:22:31;33.67;;;10.93;;
5791;SDS011;2922;53.482;10.006;2023-12-04T01:24:56;38.90;;;12.27;;
5791;SDS011;2922;53.482;10.006;2023-12-04T01:27:22;26.83;;;9.97;;
5791;SDS011;2922;53.482;10.006;2023-12-04T01:29:47;27.57;;;10.10;;
5791;SDS011;2922;53.482;10.006;2023-12-04T01:32:13;37.00;;;11.07;;
5791;SDS011;2922;53.482;10.006;2023-12-04T01:34:38;35.77;;;11.27;;
5791;SDS011;2922;53.482;10.006;2023-12-04T01:37:04;35.90;;;10.73;;
5791;SDS011;2922;53.482;10.006;2023-12-04T01:39:30;27.00;;;9.57;;
5791;SDS011;2922;53.482;10.006;2023-12-04T01:41:55;28.37;;;10.30;;
5791;SDS011;2922;53.482;10.006;2023-12-04T01:44:21;26.97;;;10.53;;
5791;SDS011;2922;53.482;10.006;2023-12-04T01:46:47;27.20;;;9.67;;
5791;SDS011;2922;53.482;10.006;2023-12-04T01:49:13;30.83;;;10.00;;
5791;SDS011;2922;53.482;10.006;2023-12-04T01:51:39;30.97;;;10.33;;
5791;SDS011;2922;53.482;10.006;2023-12-04T01:54:05;34.50;;;10.43;;
5791;SDS011;2922;53.482;10.006;2023-12-04T01:56:31;26.87;;;10.37;;
5791;SDS011;2922;53.482;10.006;2023-12-04T01:58:59;22.10;;;9.63;;
5791;SDS011;2922;53.482;10.006;2023-12-04T02:01:25;30.70;;;10.97;;
5791;SDS011;2922;53.482;10.006;2023-12-04T02:03:52;31.30;;;10.70;;
5791;SDS011;2922;53.482;10.006;2023-12-04T02:06:19;29.63;;;10.73;;
5791;SDS011;2922;53.482;10.006;2023-12-04T02:08:46;27.57;;;10.37;;
5791;SDS011;2922;53.482;10.006;2023-12-04T02:11:13;32.50;;;10.10;;
5791;SDS011;2922;53.482;10.006;2023-12-04T02:13:38;31.00;;;10.87;;
5791;SDS011;2922;53.482;10.006;2023-12-04T02:16:05;26.50;;;10.37;;
5791;SDS011;2922;53.482;10.006;2023-12-04T02:18:34;30.47;;;10.17;;
5791;SDS011;2922;53.482;10.006;2023-12-04T02:21:00;30.00;;;10.33;;
5791;SDS011;2922;53.482;10.006;2023-12-04T02:23:26;32.47;;;10.47;;
5791;SDS011;2922;53.482;10.006;2023-12-04T02:25:53;26.57;;;10.17;;
5791;SDS011;2922;53.482;10.006;2023-12-04T02:28:24;30.70;;;11.37;;
5791;SDS011;2922;53.482;10.006;2023-12-04T02:30:54;28.10;;;9.50;;
5791;SDS011;2922;53.482;10.006;2023-12-04T02:33:20;27.10;;;9.90;;
5791;SDS011;2922;53.482;10.006;2023-12-04T02:35:49;28.30;;;9.93;;
5791;SDS011;2922;53.482;10.006;2023-12-04T02:38:16;36.60;;;11.20;;
5791;SDS011;2922;53.482;10.006;2023-12-04T02:40:41;31.90;;;10.97;;
5791;SDS011;2922;53.482;10.006;2023-12-04T02:43:07;28.27;;;10.00;;
5791;SDS011;2922;53.482;10.006;2023-12-04T02:45:33;27.03;;;9.97;;
5791;SDS011;2922;53.482;10.006;2023-12-04T02:47:58;30.63;;;10.63;;
5791;SDS011;2922;53.482;10.006;2023-12-04T02:50:24;31.63;;;10.33;;
5791;SDS011;2922;53.482;10.006;2023-12-04T02:52:49;31.37;;;10.30;;
5791;SDS011;2922;53.482;10.006;2023-12-04T02:55:15;41.80;;;13.90;;
5791;SDS011;2922;53.482;10.006;2023-12-04T02:57:40;35.73;;;13.37;;
5791;SDS011;2922;53.482;10.006;2023-12-04T03:00:06;36.20;;;11.80;;
5791;SDS011;2922;53.482;10.006;2023-12-04T03:02:32;36.60;;;11.93;;
5791;SDS011;2922;53.482;10.006;2023-12-04T03:04:58;34.10;;;11.33;;
5791;SDS011;2922;53.482;10.006;2023-12-04T03:07:23;31.10;;;11.27;;
5791;SDS011;2922;53.482;10.006;2023-12-04T03:09:49;29.80;;;10.73;;
5791;SDS011;2922;53.482;10.006;2023-12-04T03:12:16;34.63;;;10.80;;
5791;SDS011;2922;53.482;10.006;2023-12-04T03:14:41;33.23;;;11.00;;
5791;SDS011;2922;53.482;10.006;2023-12-04T03:17:07;33.87;;;11.50;;
5791;SDS011;2922;53.482;10.006;2023-12-04T03:19:33;29.37;;;10.90;;
5791;SDS011;2922;53.482;10.006;2023-12-04T03:21:59;34.70;;;12.00;;
5791;SDS011;2922;53.482;10.006;2023-12-04T03:24:26;41.00;;;12.87;;
5791;SDS011;2922;53.482;10.006;2023-12-04T03:26:52;37.43;;;11.93;;
5791;SDS011;2922;53.482;10.006;2023-12-04T03:29:17;29.80;;;10.07;;
5791;SDS011;2922;53.482;10.006;2023-12-04T03:31:43;33.47;;;11.00;;
5791;SDS011;2922;53.482;10.006;2023-12-04T03:34:08;36.07;;;11.70;;
5791;SDS011;2922;53.482;10.006;2023-12-04T03:36:34;33.90;;;10.30;;
5791;SDS011;2922;53.482;10.006;2023-12-04T03:38:59;38.63;;;11.40;;
5791;SDS011;2922;53.482;10.006;2023-12-04T03:41:25;35.43;;;12.67;;
5791;SDS011;2922;53.482;10.006;2023-12-04T03:43:50;31.77;;;11.93;;
5791;SDS011;2922;53.482;10.006;2023-12-04T03:46:16;39.87;;;11.53;;
5791;SDS011;2922;53.482;10.006;2023-12-04T03:48:42;29.17;;;10.10;;
5791;SDS011;2922;53.482;10.006;2023-12-04T03:51:07;27.27;;;9.43;;
5791;SDS011;2922;53.482;10.006;2023-12-04T03:53:33;30.50;;;10.30;;
5791;SDS011;2922;53.482;10.006;2023-12-04T03:55:59;33.53;;;11.03;;
5791;SDS011;2922;53.482;10.006;2023-12-04T03:58:24;33.77;;;10.00;;
5791;SDS011;2922;53.482;10.006;2023-12-04T04:00:50;27.47;;;9.70;;
5791;SDS011;2922;53.482;10.006;2023-12-04T04:03:15;30.83;;;9.73;;
5791;SDS011;2922;53.482;10.006;2023-12-04T04:05:41;31.83;;;11.73;;
5791;SDS011;2922;53.482;10.006;2023-12-04T04:08:06;41.33;;;12.90;;
5791;SDS011;2922;53.482;10.006;2023-12-04T04:10:32;37.13;;;11.67;;
5791;SDS011;2922;53.482;10.006;2023-12-04T04:12:58;32.67;;;10.60;;
5791;SDS011;2922;53.482;10.006;2023-12-04T04:15:25;34.90;;;11.47;;
5791;SDS011;2922;53.482;10.006;2023-12-04T04:17:50;28.40;;;11.00;;
5791;SDS011;2922;53.482;10.006;2023-12-04T04:20:16;28.17;;;10.10;;
5791;SDS011;2922;53.482;10.006;2023-12-04T04:22:42;31.97;;;10.60;;
5791;SDS011;2922;53.482;10.006;2023-12-04T04:25:08;31.80;;;10.03;;
5791;SDS011;2922;53.482;10.006;2023-12-04T04:27:33;27.30;;;10.20;;
5791;SDS011;2922;53.482;10.006;2023-12-04T04:29:59;31.53;;;9.83;;
5791;SDS011;2922;53.482;10.006;2023-12-04T04:32:25;32.87;;;10.07;;
5791;SDS011;2922;53.482;10.006;2023-12-04T04:34:51;31.27;;;9.80;;
5791;SDS011;2922;53.482;10.006;2023-12-04T04:37:16;33.13;;;11.43;;
5791;SDS011;2922;53.482;10.006;2023-12-04T04:39:42;34.77;;;10.60;;
5791;SDS011;2922;53.482;10.006;2023-12-04T04:42:07;28.40;;;9.23;;
5791;SDS011;2922;53.482;10.006;2023-12-04T04:44:33;28.50;;;10.00;;
5791;SDS011;2922;53.482;10.006;2023-12-04T04:46:59;33.90;;;11.30;;
5791;SDS011;2922;53.482;10.006;2023-12-04T04:49:25;30.27;;;10.20;;
5791;SDS011;2922;53.482;10.006;2023-12-04T04:51:50;35.60;;;11.53;;
5791;SDS011;2922;53.482;10.006;2023-12-04T04:54:16;39.70;;;11.00;;
5791;SDS011;2922;53.482;10.006;2023-12-04T04:56:41;38.17;;;11.87;;
5791;SDS011;2922;53.482;10.006;2023-12-04T04:59:07;26.10;;;10.20;;
5791;SDS011;2922;53.482;10.006;2023-12-04T05:01:32;30.67;;;10.73;;
5791;SDS011;2922;53.482;10.006;2023-12-04T05:03:58;30.37;;;11.60;;
5791;SDS011;2922;53.482;10.006;2023-12-04T05:06:23;29.97;;;10.00;;
5791;SDS011;2922;53.482;10.006;2023-12-04T05:08:49;29.57;;;10.67;;
5791;SDS011;2922;53.482;10.006;2023-12-04T05:11:18;33.87;;;10.10;;
5791;SDS011;2922;53.482;10.006;2023-12-04T05:13:46;36.83;;;11.13;;
5791;SDS011;2922;53.482;10.006;2023-12-04T05:16:12;31.07;;;11.40;;
5791;SDS011;2922;53.482;10.006;2023-12-04T05:18:38;37.50;;;9.43;;
5791;SDS011;2922;53.482;10.006;2023-12-04T05:21:10;37.03;;;11.30;;
5791;SDS011;2922;53.482;10.006;2023-12-04T05:23:37;35.27;;;9.93;;
5791;SDS011;2922;53.482;10.006;2023-12-04T05:26:03;34.90;;;10.63;;
5791;SDS011;2922;53.482;10.006;2023-12-04T05:28:30;26.20;;;9.40;;
5791;SDS011;2922;53.482;10.006;2023-12-04T05:30:55;34.50;;;9.93;;
5791;SDS011;2922;53.482;10.006;2023-12-04T05:33:21;35.77;;;11.07;;
5791;SDS011;2922;53.482;10.006;2023-12-04T05:35:49;30.90;;;9.53;;
5791;SDS011;2922;53.482;10.006;2023-12-04T05:38:18;33.13;;;10.60;;
5791;SDS011;2922;53.482;10.006;2023-12-04T05:40:43;30.77;;;11.10;;
5791;SDS011;2922;53.482;10.006;2023-12-04T05:43:09;31.70;;;9.93;;
5791;SDS011;2922;53.482;10.006;2023-12-04T05:45:35;30.23;;;11.50;;
5791;SDS011;2922;53.482;10.006;2023-12-04T05:48:01;29.73;;;10.63;;
5791;SDS011;2922;53.482;10.006;2023-12-04T05:50:26;35.80;;;12.50;;
5791;SDS011;2922;53.482;10.006;2023-12-04T05:52:52;33.83;;;12.37;;
5791;SDS011;2922;53.482;10.006;2023-12-04T05:55:17;26.43;;;9.80;;
5791;SDS011;2922;53.482;10.006;2023-12-04T05:57:43;28.07;;;9.60;;
5791;SDS011;2922;53.482;10.006;2023-12-04T06:00:09;29.40;;;9.77;;
5791;SDS011;2922;53.482;10.006;2023-12-04T06:02:42;35.23;;;10.40;;
5791;SDS011;2922;53.482;10.006;2023-12-04T06:05:08;36.03;;;10.67;;
5791;SDS011;2922;53.482;10.006;2023-12-04T06:07:34;36.33;;;10.50;;
5791;SDS011;2922;53.482;10.006;2023-12-04T06:10:01;32.63;;;10.13;;
5791;SDS011;2922;53.482;10.006;2023-12-04T06:12:29;33.00;;;10.87;;
5791;SDS011;2922;53.482;10.006;2023-12-04T06:14:55;34.50;;;11.10;;
5791;SDS011;2922;53.482;10.006;2023-12-04T06:17:20;30.30;;;10.27;;
5791;SDS011;2922;53.482;10.006;2023-12-04T06:19:46;26.60;;;9.50;;
5791;SDS011;2922;53.482;10.006;2023-12-04T06:22:12;25.60;;;9.40;;
5791;SDS011;2922;53.482;10.006;2023-12-04T06:24:38;37.47;;;11.10;;
5791;SDS011;2922;53.482;10.006;2023-12-04T06:27:04;33.50;;;11.30;;
5791;SDS011;2922;53.482;10.006;2023-12-04T06:29:31;35.60;;;11.90;;
5791;SDS011;2922;53.482;10.006;2023-12-04T06:31:57;35.60;;;11.30;;
5791;SDS011;2922;53.482;10.006;2023-12-04T06:34:23;37.40;;;10.97;;
5791;SDS011;2922;53.482;10.006;2023-12-04T06:36:49;34.63;;;11.10;;
5791;SDS011;2922;53.482;10.006;2023-12-04T06:39:15;36.07;;;11.30;;
5791;SDS011;2922;53.482;10.006;2023-12-04T06:41:42;44.50;;;12.10;;
5791;SDS011;2922;53.482;10.006;2023-12-04T07:30:38;41.80;;;12.07;;
5791;SDS011;2922;53.482;10.006;2023-12-04T07:33:04;43.17;;;13.07;;
5791;SDS011;2922;53.482;10.006;2023-12-04T07:35:29;38.80;;;11.63;;
5791;SDS011;2922;53.482;10.006;2023-12-04T07:37:55;39.43;;;11.20;;
5791;SDS011;2922;53.482;10.006;2023-12-04T07:40:20;39.90;;;12.00;;
5791;SDS011;2922;53.482;10.006;2023-12-04T07:42:48;43.13;;;11.53;;
5791;SDS011;2922;53.482;10.006;2023-12-04T07:45:13;36.70;;;12.17;;
5791;SDS011;2922;53.482;10.006;2023-12-04T07:47:40;34.67;;;12.40;;
5791;SDS011;2922;53.482;10.006;2023-12-04T07:50:06;44.13;;;11.93;;
5791;SDS011;2922;53.482;10.006;2023-12-04T07:52:32;37.77;;;12.80;;
5791;SDS011;2922;53.482;10.006;2023-12-04T07:54:58;40.57;;;12.17;;
5791;SDS011;2922;53.482;10.006;2023-12-04T07:57:24;42.80;;;12.50;;
5791;SDS011;2922;53.482;10.006;2023-12-04T07:59:49;36.10;;;11.70;;
5791;SDS011;2922;53.482;10.006;2023-12-04T08:02:15;40.00;;;13.00;;
5791;SDS011;2922;53.482;10.006;2023-12-04T08:04:40;34.37;;;11.27;;
5791;SDS011;2922;53.482;10.006;2023-12-04T08:07:06;40.30;;;12.13;;
5791;SDS011;2922;53.482;10.006;2023-12-04T08:09:31;40.83;;;13.50;;
5791;SDS011;2922;53.482;10.006;2023-12-04T08:11:57;39.80;;;12.77;;
5791;SDS011;2922;53.482;10.006;2023-12-04T08:14:23;38.83;;;13.20;;
5791;SDS011;2922;53.482;10.006;2023-12-04T08:16:49;37.77;;;12.57;;
5791;SDS011;2922;53.482;10.006;2023-12-04T08:19:14;45.70;;;12.40;;
5791;SDS011;2922;53.482;10.006;2023-12-04T08:21:41;33.53;;;11.30;;
5791;SDS011;2922;53.482;10.006;2023-12-04T08:24:06;40.33;;;12.23;;
5791;SDS011;2922;53.482;10.006;2023-12-04T08:26:32;34.30;;;11.40;;
5791;SDS011;2922;53.482;10.006;2023-12-04T08:28:57;38.03;;;11.53;;
5791;SDS011;2922;53.482;10.006;2023-12-04T08:31:23;40.10;;;13.27;;
5791;SDS011;2922;53.482;10.006;2023-12-04T08:33:48;42.33;;;12.53;;
5791;SDS011;2922;53.482;10.006;2023-12-04T08:36:14;47.17;;;12.30;;
5791;SDS011;2922;53.482;10.006;2023-12-04T08:38:40;38.33;;;11.33;;
5791;SDS011;2922;53.482;10.006;2023-12-04T08:41:07;35.07;;;12.53;;
5791;SDS011;2922;53.482;10.006;2023-12-04T08:43:32;43.20;;;12.50;;
5791;SDS011;2922;53.482;10.006;2023-12-04T08:45:59;42.43;;;12.20;;
5791;SDS011;2922;53.482;10.006;2023-12-04T08:48:27;35.37;;;12.50;;
5791;SDS011;2922;53.482;10.006;2023-12-04T08:50:53;38.30;;;12.57;;
5791;SDS011;2922;53.482;10.006;2023-12-04T08:53:18;34.27;;;12.20;;
5791;SDS011;2922;53.482;10.006;2023-12-04T08:55:44;37.47;;;11.77;;
5791;SDS011;2922;53.482;10.006;2023-12-04T08:58:09;48.83;;;13.13;;
5791;SDS011;2922;53.482;10.006;2023-12-04T09:00:36;36.33;;;10.87;;
5791;SDS011;2922;53.482;10.006;2023-12-04T09:03:02;35.80;;;12.80;;
5791;SDS011;2922;53.482;10.006;2023-12-04T09:05:28;39.07;;;12.30;;
5791;SDS011;2922;53.482;10.006;2023-12-04T09:07:54;39.97;;;12.77;;
5791;SDS011;2922;53.482;10.006;2023-12-04T09:10:19;40.73;;;12.00;;
5791;SDS011;2922;53.482;10.006;2023-12-04T09:12:45;36.13;;;12.20;;
5791;SDS011;2922;53.482;10.006;2023-12-04T09:15:10;39.33;;;12.40;;
5791;SDS011;2922;53.482;10.006;2023-12-04T09:17:36;39.73;;;11.73;;
5791;SDS011;2922;53.482;10.006;2023-12-04T09:20:02;35.23;;;12.17;;
5791;SDS011;2922;53.482;10.006;2023-12-04T09:22:28;36.90;;;12.17;;
5791;SDS011;2922;53.482;10.006;2023-12-04T09:24:53;27.63;;;10.73;;
5791;SDS011;2922;53.482;10.006;2023-12-04T09:27:19;33.57;;;12.13;;
5791;SDS011;2922;53.482;10.006;2023-12-04T09:29:45;41.10;;;12.70;;
5791;SDS011;2922;53.482;10.006;2023-12-04T09:32:11;46.37;;;13.70;;
5791;SDS011;2922;53.482;10.006;2023-12-04T09:34:36;39.30;;;12.60;;
5791;SDS011;2922;53.482;10.006;2023-12-04T09:37:02;40.67;;;12.17;;
5791;SDS011;2922;53.482;10.006;2023-12-04T09:39:28;39.00;;;12.63;;
5791;SDS011;2922;53.482;10.006;2023-12-04T09:41:54;37.37;;;13.17;;
5791;SDS011;2922;53.482;10.006;2023-12-04T09:44:21;33.93;;;11.50;;
5791;SDS011;2922;53.482;10.006;2023-12-04T09:46:49;37.20;;;11.63;;
5791;SDS011;2922;53.482;10.006;2023-12-04T09:49:16;36.70;;;12.03;;
5791;SDS011;2922;53.482;10.006;2023-12-04T09:51:43;39.93;;;12.20;;
5791;SDS011;2922;53.482;10.006;2023-12-04T09:54:09;35.97;;;13.60;;
5791;SDS011;2922;53.482;10.006;2023-12-04T09:56:34;34.77;;;12.10;;
5791;SDS011;2922;53.482;10.006;2023-12-04T09:59:02;35.07;;;11.83;;
5791;SDS011;2922;53.482;10.006;2023-12-04T10:01:31;45.90;;;13.90;;
5791;SDS011;2922;53.482;10.006;2023-12-04T10:03:57;37.83;;;11.80;;
5791;SDS011;2922;53.482;10.006;2023-12-04T10:06:27;32.07;;;11.30;;
5791;SDS011;2922;53.482;10.006;2023-12-04T10:08:56;31.20;;;10.97;;
5791;SDS011;2922;53.482;10.006;2023-12-04T10:11:23;43.83;;;12.70;;
5791;SDS011;2922;53.482;10.006;2023-12-04T10:13:49;43.83;;;11.30;;
5791;SDS011;2922;53.482;10.006;2023-12-04T10:16:30;36.20;;;12.17;;
5791;SDS011;2922;53.482;10.006;2023-12-04T10:18:57;31.43;;;12.20;;
5791;SDS011;2922;53.482;10.006;2023-12-04T10:21:34;37.20;;;11.90;;
5791;SDS011;2922;53.482;10.006;2023-12-04T10:24:00;33.80;;;11.87;;
5791;SDS011;2922;53.482;10.006;2023-12-04T10:26:26;39.40;;;12.90;;
5791;SDS011;2922;53.482;10.006;2023-12-04T10:28:59;30.90;;;11.97;;
5791;SDS011;2922;53.482;10.006;2023-12-04T10:31:25;28.50;;;10.07;;
5791;SDS011;2922;53.482;10.006;2023-12-04T10:33:51;26.60;;;10.77;;
5791;SDS011;2922;53.482;10.006;2023-12-04T10:36:17;27.00;;;10.47;;
5791;SDS011;2922;53.482;10.006;2023-12-04T10:38:44;26.93;;;10.97;;
5791;SDS011;2922;53.482;10.006;2023-12-04T10:41:12;29.70;;;10.80;;
5791;SDS011;2922;53.482;10.006;2023-12-04T10:43:46;30.57;;;11.20;;
5791;SDS011;2922;53.482;10.006;2023-12-04T10:46:13;31.10;;;13.20;;
5791;SDS011;2922;53.482;10.006;2023-12-04T10:48:41;28.30;;;9.70;;
5791;SDS011;2922;53.482;10.006;2023-12-04T10:51:09;31.00;;;11.57;;
5791;SDS011;2922;53.482;10.006;2023-12-04T10:53:37;30.20;;;10.00;;
5791;SDS011;2922;53.482;10.006;2023-12-04T10:56:06;32.70;;;11.67;;
5791;SDS011;2922;53.482;10.006;2023-12-04T10:58:34;24.77;;;8.63;;
5791;SDS011;2922;53.482;10.006;2023-12-04T11:01:04;24.63;;;10.43;;
5791;SDS011;2922;53.482;10.006;2023-12-04T11:03:52;25.67;;;9.97;;
5791;SDS011;2922;53.482;10.006;2023-12-04T11:06:20;27.80;;;10.30;;
5791;SDS011;2922;53.482;10.006;2023-12-04T11:08:48;23.67;;;9.73;;
5791;SDS011;2922;53.482;10.006;2023-12-04T11:11:20;27.93;;;9.90;;
5791;SDS011;2922;53.482;10.006;2023-12-04T11:13:58;24.93;;;10.10;;
5791;SDS011;2922;53.482;10.006;2023-12-04T11:16:30;25.67;;;9.80;;
5791;SDS011;2922;53.482;10.006;2023-12-04T11:22:18;30.60;;;11.17;;
5791;SDS011;2922;53.482;10.006;2023-12-04T11:24:46;24.03;;;9.53;;
5791;SDS011;2922;53.482;10.006;2023-12-04T11:27:16;28.27;;;9.93;;
5791;SDS011;2922;53.482;10.006;2023-12-04T11:29:43;28.03;;;10.00;;
5791;SDS011;2922;53.482;10.006;2023-12-04T11:32:16;25.53;;;9.80;;
5791;SDS011;2922;53.482;10.006;2023-12-04T11:34:55;24.50;;;10.67;;
5791;SDS011;2922;53.482;10.006;2023-12-04T11:37:25;25.43;;;9.80;;
5791;SDS011;2922;53.482;10.006;2023-12-04T11:39:51;29.27;;;11.87;;
5791;SDS011;2922;53.482;10.006;2023-12-04T11:42:24;30.77;;;10.33;;
5791;SDS011;2922;53.482;10.006;2023-12-04T11:44:55;24.17;;;9.67;;
5791;SDS011;2922;53.482;10.006;2023-12-04T11:47:23;28.83;;;9.80;;
5791;SDS011;2922;53.482;10.006;2023-12-04T11:49:48;23.60;;;9.50;;
5791;SDS011;2922;53.482;10.006;2023-12-04T11:52:15;25.07;;;10.30;;
5791;SDS011;2922;53.482;10.006;2023-12-04T11:57:23;22.23;;;8.97;;
5791;SDS011;2922;53.482;10.006;2023-12-04T11:59:50;22.73;;;8.07;;
5791;SDS011;2922;53.482;10.006;2023-12-04T12:02:17;23.77;;;8.77;;
5791;SDS011;2922;53.482;10.006;2023-12-04T12:04:42;22.40;;;8.87;;
5791;SDS011;2922;53.482;10.006;2023-12-04T12:07:10;21.70;;;9.07;;
5791;SDS011;2922;53.482;10.006;2023-12-04T12:09:36;22.30;;;8.10;;
5791;SDS011;2922;53.482;10.006;2023-12-04T12:12:02;22.20;;;8.90;;
5791;SDS011;2922;53.482;10.006;2023-12-04T12:14:29;24.13;;;9.47;;
5791;SDS011;2922;53.482;10.006;2023-12-04T12:16:55;26.83;;;9.80;;
5791;SDS011;2922;53.482;10.006;2023-12-04T12:19:23;23.10;;;8.97;;
5791;SDS011;2922;53.482;10.006;2023-12-04T12:21:48;26.30;;;11.07;;
5791;SDS011;2922;53.482;10.006;2023-12-04T12:24:16;36.37;;;9.20;;
5791;SDS011;2922;53.482;10.006;2023-12-04T12:26:42;24.07;;;8.47;;
5791;SDS011;2922;53.482;10.006;2023-12-04T12:29:08;24.37;;;9.10;;
5791;SDS011;2922;53.482;10.006;2023-12-04T12:31:34;31.37;;;11.53;;
5791;SDS011;2922;53.482;10.006;2023-12-04T12:34:00;26.00;;;9.80;;
5791;SDS011;2922;53.482;10.006;2023-12-04T12:36:25;27.47;;;9.43;;
5791;SDS011;2922;53.482;10.006;2023-12-04T12:38:52;26.60;;;9.63;;
5791;SDS011;2922;53.482;10.006;2023-12-04T12:41:18;25.20;;;9.60;;
5791;SDS011;2922;53.482;10.006;2023-12-04T12:43:45;27.67;;;10.50;;
5791;SDS011;2922;53.482;10.006;2023-12-04T12:46:11;24.57;;;10.30;;
5791;SDS011;2922;53.482;10.006;2023-12-04T12:48:36;21.57;;;9.20;;
5791;SDS011;2922;53.482;10.006;2023-12-04T12:51:02;23.03;;;9.13;;
5791;SDS011;2922;53.482;10.006;2023-12-04T12:53:28;24.20;;;8.40;;
5791;SDS011;2922;53.482;10.006;2023-12-04T12:55:57;25.27;;;10.53;;
5791;SDS011;2922;53.482;10.006;2023-12-04T12:58:25;21.93;;;9.80;;
5791;SDS011;2922;53.482;10.006;2023-12-04T13:00:50;26.77;;;9.20;;
5791;SDS011;2922;53.482;10.006;2023-12-04T13:03:16;23.37;;;9.20;;
5791;SDS011;2922;53.482;10.006;2023-12-04T13:05:42;21.73;;;8.70;;
5791;SDS011;2922;53.482;10.006;2023-12-04T13:08:08;22.80;;;8.47;;
5791;SDS011;2922;53.482;10.006;2023-12-04T13:13:01;26.05;;;10.35;;
5791;SDS011;2922;53.482;10.006;2023-12-04T13:15:27;21.80;;;9.40;;
5791;SDS011;2922;53.482;10.006;2023-12-04T13:17:53;24.50;;;9.47;;
5791;SDS011;2922;53.482;10.006;2023-12-04T13:20:18;25.80;;;10.57;;
5791;SDS011;2922;53.482;10.006;2023-12-04T13:22:44;36.10;;;9.80;;
5791;SDS011;2922;53.482;10.006;2023-12-04T13:25:10;28.07;;;9.60;;
5791;SDS011;2922;53.482;10.006;2023-12-04T13:27:36;27.27;;;9.60;;
5791;SDS011;2922;53.482;10.006;2023-12-04T13:30:06;27.47;;;10.20;;
5791;SDS011;2922;53.482;10.006;2023-12-04T13:32:36;28.83;;;9.07;;
5791;SDS011;2922;53.482;10.006;2023-12-04T13:35:02;22.27;;;8.83;;
5791;SDS011;2922;53.482;10.006;2023-12-04T13:37:30;24.80;;;10.50;;
5791;SDS011;2922;53.482;10.006;2023-12-04T13:39:55;25.17;;;9.10;;
5791;SDS011;2922;53.482;10.006;2023-12-04T13:42:29;28.17;;;10.27;;
5791;SDS011;2922;53.482;10.006;2023-12-04T13:45:13;27.83;;;10.23;;
5791;SDS011;2922;53.482;10.006;2023-12-04T13:47:38;28.37;;;10.40;;
5791;SDS011;2922;53.482;10.006;2023-12-04T13:50:05;27.00;;;9.70;;
5791;SDS011;2922;53.482;10.006;2023-12-04T13:52:34;28.37;;;9.30;;
5791;SDS011;2922;53.482;10.006;2023-12-04T13:55:04;22.60;;;9.20;;
5791;SDS011;2922;53.482;10.006;2023-12-04T13:57:39;27.73;;;8.80;;
5791;SDS011;2922;53.482;10.006;2023-12-04T14:00:20;28.77;;;10.83;;
5791;SDS011;2922;53.482;10.006;2023-12-04T14:02:46;30.87;;;10.00;;
5791;SDS011;2922;53.482;10.006;2023-12-04T14:05:12;25.23;;;9.67;;
5791;SDS011;2922;53.482;10.006;2023-12-04T14:07:40;29.17;;;9.50;;
5791;SDS011;2922;53.482;10.006;2023-12-04T14:10:08;24.90;;;9.13;;
5791;SDS011;2922;53.482;10.006;2023-12-04T14:12:34;26.13;;;9.67;;
5791;SDS011;2922;53.482;10.006;2023-12-04T14:15:01;24.13;;;9.50;;
5791;SDS011;2922;53.482;10.006;2023-12-04T14:17:28;23.50;;;8.60;;
5791;SDS011;2922;53.482;10.006;2023-12-04T14:19:54;23.43;;;9.90;;
5791;SDS011;2922;53.482;10.006;2023-12-04T14:22:19;25.70;;;9.50;;
5791;SDS011;2922;53.482;10.006;2023-12-04T14:24:45;22.70;;;8.33;;
5791;SDS011;2922;53.482;10.006;2023-12-04T14:27:10;26.00;;;8.93;;
5791;SDS011;2922;53.482;10.006;2023-12-04T14:29:36;24.30;;;8.10;;
5791;SDS011;2922;53.482;10.006;2023-12-04T14:32:01;27.40;;;10.10;;
5791;SDS011;2922;53.482;10.006;2023-12-04T14:34:27;29.00;;;9.10;;
5791;SDS011;2922;53.482;10.006;2023-12-04T14:36:53;25.67;;;10.10;;
5791;SDS011;2922;53.482;10.006;2023-12-04T14:39:19;24.40;;;9.27;;
5791;SDS011;2922;53.482;10.006;2023-12-04T14:41:44;29.43;;;9.03;;
5791;SDS011;2922;53.482;10.006;2023-12-04T14:44:10;24.87;;;9.00;;
5791;SDS011;2922;53.482;10.006;2023-12-04T14:46:35;26.70;;;9.37;;
5791;SDS011;2922;53.482;10.006;2023-12-04T14:49:01;29.20;;;9.70;;
5791;SDS011;2922;53.482;10.006;2023-12-04T14:51:27;29.80;;;9.67;;
5791;SDS011;2922;53.482;10.006;2023-12-04T14:53:52;20.87;;;8.40;;
5791;SDS011;2922;53.482;10.006;2023-12-04T14:56:37;19.97;;;7.73;;
5791;SDS011;2922;53.482;10.006;2023-12-04T14:59:28;25.10;;;8.77;;
5791;SDS011;2922;53.482;10.006;2023-12-04T15:02:06;25.63;;;9.30;;
5791;SDS011;2922;53.482;10.006;2023-12-04T15:05:01;21.00;;;7.70;;
5791;SDS011;2922;53.482;10.006;2023-12-04T15:07:29;23.67;;;9.03;;
5791;SDS011;2922;53.482;10.006;2023-12-04T15:09:55;21.33;;;8.63;;
5791;SDS011;2922;53.482;10.006;2023-12-04T15:12:32;21.83;;;8.53;;
5791;SDS011;2922;53.482;10.006;2023-12-04T15:15:16;26.50;;;8.57;;
5791;SDS011;2922;53.482;10.006;2023-12-04T15:17:54;26.80;;;9.70;;
5791;SDS011;2922;53.482;10.006;2023-12-04T15:20:43;24.17;;;9.53;;
5791;SDS011;2922;53.482;10.006;2023-12-04T15:23:09;20.10;;;7.93;;
5791;SDS011;2922;53.482;10.006;2023-12-04T15:25:35;21.50;;;8.50;;
5791;SDS011;2922;53.482;10.006;2023-12-04T15:28:01;25.37;;;8.73;;
5791;SDS011;2922;53.482;10.006;2023-12-04T15:30:31;22.67;;;8.73;;